Mount Ulla, North Carolina
Current Conditions -  °F | °C
As of 7:35 PM on Sunday 21 Dec 2014 (Local Time) from KRUQ Reporting Station
Overcast Overcast  
Wind Chill: 42°   Ceiling: 4400
Heat Index: 45°   Visibility: 10mi
Dew Point: 37°   Wind: 6mph
Humidity: 73%   Direction: 60°ENE
Pressure: 30.2"   Gusts: NA
Location:  35.66°N, 80.73°W
Report Text: KRUQ 220035Z AUTO 06005KT 10SM OVC044 07/03 A3020 RMK AO2 T00720026
Loading
Personal Weather Stations






























Interactive Weather Map New forecast layout! Learn more

10-Day Weather Forecast

Advertisements
Track Severe Weather on mobile